Time;durP1;ratioP1;P1;durP2;ratioP2;P2;SDS_P1;SDS_P2;PMS_P1;PMS_P2;Temp;Humidity;BMP_temperature;BMP_pressure;BME280_temperature;BME280_humidity;BME280_pressure;Samples;Min_cycle;Max_cycle;Signal;HPM_P1;HPM_P2
2022/09/20 00:01:08;;;;;;;0.80;0.80;;;;;;;9.82;100.00;96756.22;5019644;27;101860;-62
2022/09/20 00:03:35;;;;;;;1.07;0.90;;;;;;;9.67;100.00;96755.94;5011003;28;102899;-63
2022/09/20 00:06:06;;;;;;;2.10;1.27;;;;;;;9.66;100.00;96764.94;5010338;28;101839;-63
2022/09/20 00:08:33;;;;;;;1.53;1.00;;;;;;;9.57;100.00;96745.09;5019196;27;101872;-63
2022/09/20 00:11:02;;;;;;;1.60;1.20;;;;;;;9.48;100.00;96743.88;5017585;28;105583;-62
2022/09/20 00:13:30;;;;;;;1.00;0.93;;;;;;;9.43;100.00;96747.22;5009031;28;106431;-63
2022/09/20 00:15:58;;;;;;;1.13;0.90;;;;;;;9.38;100.00;96741.00;5009531;28;101971;-63
2022/09/20 00:18:27;;;;;;;2.27;1.30;;;;;;;9.32;100.00;96749.91;5013823;28;102888;-63
2022/09/20 00:21:28;;;;;;;1.23;0.80;;;;;;;9.25;100.00;96735.94;5020178;28;101848;-63
2022/09/20 00:23:56;;;;;;;1.27;1.10;;;;;;;9.26;100.00;96732.25;5029413;28;105249;-63
2022/09/20 00:26:43;;;;;;;1.53;1.17;;;;;;;9.19;100.00;96728.91;5030103;27;102360;-63
2022/09/20 00:29:12;;;;;;;1.03;0.93;;;;;;;9.24;100.00;96731.66;5029714;28;101857;-63
2022/09/20 00:31:41;;;;;;;1.40;1.00;;;;;;;9.21;100.00;96730.28;5028974;28;105302;-63
2022/09/20 00:37:08;;;;;;;1.53;1.00;;;;;;;9.20;100.00;96723.38;5030942;27;101696;-63
2022/09/20 00:39:35;;;;;;;1.47;1.00;;;;;;;9.20;100.00;96725.22;5029415;28;105450;-63
2022/09/20 00:42:02;;;;;;;1.17;1.03;;;;;;;9.22;100.00;96723.94;5032109;28;105526;-63
2022/09/20 00:44:57;;;;;;;1.37;1.17;;;;;;;9.24;100.00;96727.19;5030661;28;102948;-63
2022/09/20 00:47:38;;;;;;;1.43;1.20;;;;;;;9.26;100.00;96721.66;5010473;28;105655;-63
2022/09/20 00:50:35;;;;;;;1.83;1.20;;;;;;;9.23;100.00;96720.28;5011103;28;101812;-63
2022/09/20 00:53:07;;;;;;;1.40;1.30;;;;;;;9.26;100.00;96725.09;5009971;28;102997;-63
2022/09/20 00:55:38;;;;;;;2.90;1.77;;;;;;;9.26;100.00;96724.31;5015165;28;105845;-63
2022/09/20 00:58:06;;;;;;;1.30;1.20;;;;;;;9.32;100.00;96718.06;5030582;27;101669;-63
2022/09/20 01:00:34;;;;;;;1.67;1.40;;;;;;;9.27;100.00;96721.41;5029031;28;105084;-62
2022/09/20 01:03:05;;;;;;;1.40;1.30;;;;;;;9.29;100.00;96718.50;5029929;28;103117;-63
2022/09/20 01:06:11;;;;;;;1.53;1.40;;;;;;;9.30;100.00;96722.78;5032640;28;102058;-63
2022/09/20 01:08:44;;;;;;;1.80;1.33;;;;;;;9.31;100.00;96716.41;5028367;28;105767;-63
2022/09/20 01:11:12;;;;;;;1.83;1.10;;;;;;;9.33;100.00;96724.97;5030434;27;101646;-63
2022/09/20 01:13:39;;;;;;;1.60;1.10;;;;;;;9.31;100.00;96722.53;5030129;28;102290;-63
2022/09/20 01:16:46;;;;;;;1.37;1.27;;;;;;;9.31;100.00;96705.81;5029497;27;103093;-63
2022/09/20 01:19:40;;;;;;;1.90;1.43;;;;;;;9.30;100.00;96704.19;5030425;28;101670;-62
2022/09/20 01:22:17;;;;;;;2.63;1.47;;;;;;;9.28;100.00;96711.59;5030902;27;105208;-63
2022/09/20 01:24:51;;;;;;;1.37;1.30;;;;;;;9.33;100.00;96709.06;5031378;28;105548;-63
2022/09/20 01:27:27;;;;;;;1.60;1.30;;;;;;;9.35;100.00;96712.25;5033951;28;101676;-62
2022/09/20 01:30:05;;;;;;;1.50;1.40;;;;;;;9.35;100.00;96705.13;5036479;28;102557;-63
2022/09/20 01:32:43;;;;;;;1.77;1.40;;;;;;;9.36;100.00;96696.13;5033911;27;101716;-63
2022/09/20 01:35:11;;;;;;;1.97;1.23;;;;;;;9.35;100.00;96696.34;5032290;28;105267;-63
2022/09/20 01:38:14;;;;;;;2.13;1.20;;;;;;;9.33;100.00;96687.81;5031698;28;105840;-62
2022/09/20 01:40:52;;;;;;;1.67;1.20;;;;;;;9.31;100.00;96687.22;5010342;28;101993;-63
2022/09/20 01:43:27;;;;;;;2.03;1.20;;;;;;;9.31;100.00;96684.56;5013483;28;102504;-63
2022/09/20 01:46:29;;;;;;;1.33;1.23;;;;;;;9.34;100.00;96690.25;5012604;28;103204;-62
2022/09/20 01:49:07;;;;;;;2.20;1.13;;;;;;;9.38;100.00;96691.38;5013323;28;101630;-63
2022/09/20 01:52:26;;;;;;;1.10;1.10;;;;;;;9.40;100.00;96693.78;5011430;28;105588;-63
2022/09/20 01:55:25;;;;;;;1.57;1.30;;;;;;;9.41;100.00;96690.09;5015871;28;103042;-62
2022/09/20 01:58:34;;;;;;;1.97;1.40;;;;;;;9.45;100.00;96693.91;4969588;28;102270;-63
2022/09/20 02:01:27;;;;;;;2.20;1.40;;;;;;;9.40;100.00;96701.75;5025035;28;105604;-63
2022/09/20 02:04:37;;;;;;;2.30;1.20;;;;;;;9.37;100.00;96700.38;5019082;28;102010;-63
2022/09/20 02:11:05;;;;;;;2.70;2.10;;;;;;;9.41;100.00;96690.91;5013954;27;103154;-62
2022/09/20 02:13:37;;;;;;;2.20;1.37;;;;;;;9.35;100.00;96685.72;4995998;28;102032;-63
2022/09/20 02:16:36;;;;;;;1.40;1.30;;;;;;;9.34;100.00;96697.38;5013004;28;102425;-63
2022/09/20 02:19:25;;;;;;;2.73;1.43;;;;;;;9.38;100.00;96691.38;5010893;28;105345;-63
2022/09/20 02:22:08;;;;;;;2.63;1.50;;;;;;;9.39;100.00;96689.53;5016276;28;101976;-63
2022/09/20 02:24:43;;;;;;;2.73;1.40;;;;;;;9.35;100.00;96696.34;5022125;28;105756;-63
2022/09/20 02:27:24;;;;;;;1.90;1.40;;;;;;;9.33;100.00;96696.56;5032690;28;101680;-63
2022/09/20 02:30:03;;;;;;;1.83;1.73;;;;;;;9.42;100.00;96689.03;5031981;28;104168;-63
2022/09/20 02:32:46;;;;;;;1.80;1.17;;;;;;;9.43;100.00;96694.13;5028682;28;102796;-62
2022/09/20 02:35:26;;;;;;;2.40;1.30;;;;;;;9.36;100.00;96697.94;5012783;28;101817;-63
2022/09/20 02:38:08;;;;;;;1.50;1.40;;;;;;;9.34;100.00;96684.13;5011245;28;105146;-63
2022/09/20 02:40:51;;;;;;;2.23;1.00;;;;;;;9.35;100.00;96696.34;5010294;28;105897;-63
2022/09/20 02:43:27;;;;;;;1.07;1.00;;;;;;;9.35;100.00;96691.84;5015857;28;101632;-63
2022/09/20 02:46:15;;;;;;;1.30;1.20;;;;;;;9.39;100.00;96686.88;5010635;28;105789;-63
2022/09/20 02:48:50;;;;;;;1.17;1.07;;;;;;;9.45;100.00;96691.25;5010974;28;102043;-63
2022/09/20 02:51:40;;;;;;;1.33;1.23;;;;;;;9.43;100.00;96696.78;5010031;28;103984;-63
2022/09/20 02:54:22;;;;;;;1.43;1.10;;;;;;;9.44;100.00;96705.56;5010034;28;107181;-62
2022/09/20 02:56:59;;;;;;;2.40;1.33;;;;;;;9.43;100.00;96709.25;5017989;28;101652;-63
2022/09/20 02:59:35;;;;;;;1.33;1.20;;;;;;;9.40;100.00;96702.56;5030901;28;106796;-63
2022/09/20 03:02:16;;;;;;;1.30;1.20;;;;;;;9.37;100.00;96715.50;5029907;28;105836;-62
2022/09/20 03:05:00;;;;;;;2.53;1.60;;;;;;;9.31;100.00;96719.91;5030896;28;101957;-63
2022/09/20 03:07:53;;;;;;;2.03;1.27;;;;;;;9.23;100.00;96730.06;5023649;28;102381;-63
2022/09/20 03:10:29;;;;;;;1.07;1.00;;;;;;;9.28;100.00;96690.38;5025334;28;102184;-63
2022/09/20 03:13:10;;;;;;;1.00;1.00;;;;;;;9.20;100.00;96696.84;5032240;27;102913;-63
2022/09/20 03:16:05;;;;;;;1.40;1.30;;;;;;;9.16;100.00;96698.34;5031492;28;102513;-63
2022/09/20 03:18:47;;;;;;;1.77;1.50;;;;;;;9.09;100.00;96700.31;5026199;28;101672;-63
2022/09/20 03:21:38;;;;;;;1.60;1.50;;;;;;;9.12;100.00;96707.81;5010664;28;105179;-63
2022/09/20 03:24:14;;;;;;;2.17;1.60;;;;;;;9.11;100.00;96702.75;5009354;28;105471;-63
2022/09/20 03:26:58;;;;;;;1.53;1.40;;;;;;;9.17;100.00;96705.25;5010303;28;101746;-63
2022/09/20 03:29:39;;;;;;;3.83;1.80;;;;;;;9.16;100.00;96703.66;5011916;28;102268;-62
2022/09/20 03:32:21;;;;;;;1.20;1.20;;;;;;;9.17;100.00;96696.50;5014564;28;103068;-63
2022/09/20 03:35:00;;;;;;;3.83;1.53;;;;;;;9.14;100.00;96703.09;5026248;28;103645;-63
2022/09/20 03:37:48;;;;;;;1.60;1.40;;;;;;;9.09;100.00;96694.19;5029605;28;105825;-62
2022/09/20 03:40:37;;;;;;;1.73;1.40;;;;;;;9.05;100.00;96703.69;5031746;27;101647;-62
2022/09/20 03:43:20;;;;;;;1.90;1.80;;;;;;;9.00;100.00;96704.34;5028418;28;102321;-62
2022/09/20 03:46:02;;;;;;;4.37;1.90;;;;;;;8.97;100.00;96709.31;5029394;28;106741;-63
2022/09/20 03:49:00;;;;;;;2.40;1.57;;;;;;;8.82;100.00;96707.16;5030286;28;101784;-63
2022/09/20 03:51:45;;;;;;;1.87;1.50;;;;;;;8.77;100.00;96709.69;5023824;27;102270;-63
2022/09/20 03:55:03;;;;;;;2.00;1.70;;;;;;;8.79;100.00;96706.81;5021086;28;102681;-63
2022/09/20 03:58:02;;;;;;;1.83;1.60;;;;;;;8.77;100.00;96706.25;4954368;28;101912;-62
2022/09/20 04:00:48;;;;;;;2.27;2.00;;;;;;;8.83;100.00;96714.06;4933263;28;103004;-63
2022/09/20 04:03:28;;;;;;;1.83;1.70;;;;;;;8.83;100.00;96719.38;4959235;28;102001;-63
2022/09/20 04:06:33;;;;;;;1.77;1.67;;;;;;;8.82;100.00;96716.94;4969162;28;102502;-63
2022/09/20 04:09:28;;;;;;;3.93;2.10;;;;;;;8.82;100.00;96716.94;4968653;28;102980;-63
2022/09/20 04:12:04;;;;;;;3.07;2.30;;;;;;;8.83;100.00;96715.94;4960197;28;103559;-63
2022/09/20 04:14:39;;;;;;;2.77;2.30;;;;;;;8.83;100.00;96715.94;4949733;28;103034;-62
2022/09/20 04:17:31;;;;;;;2.60;2.40;;;;;;;8.85;100.00;96719.97;4959345;28;102845;-64
2022/09/20 04:20:06;;;;;;;6.00;2.33;;;;;;;8.87;100.00;96717.88;4948019;28;101997;-63
2022/09/20 04:22:33;;;;;;;2.77;2.50;;;;;;;8.88;100.00;96724.78;4971286;28;102954;-64
2022/09/20 04:25:05;;;;;;;2.03;1.93;;;;;;;8.88;100.00;96718.69;4951828;28;102061;-63
2022/09/20 04:27:46;;;;;;;2.90;1.90;;;;;;;8.87;100.00;96725.84;4968837;28;102924;-63
2022/09/20 04:30:18;;;;;;;2.20;1.77;;;;;;;8.90;100.00;96721.91;4952228;28;104441;-63
2022/09/20 04:32:54;;;;;;;4.10;1.67;;;;;;;8.93;100.00;96724.09;5009138;28;101856;-63
2022/09/20 04:38:20;;;;;;;1.40;1.40;;;;;;;8.95;100.00;96722.81;5029801;27;102595;-63
2022/09/20 04:41:32;;;;;;;1.73;1.57;;;;;;;9.00;100.00;96722.13;5030105;28;101838;-63
2022/09/20 04:44:31;;;;;;;1.33;1.30;;;;;;;8.89;100.00;96726.41;5021282;28;103463;-63
2022/09/20 04:47:42;;;;;;;3.23;1.50;;;;;;;8.88;100.00;96729.31;5032973;27;101681;-63
2022/09/20 04:50:52;;;;;;;2.53;1.60;;;;;;;8.93;100.00;96730.22;5024513;28;105150;-63
2022/09/20 04:53:46;;;;;;;1.13;1.13;;;;;;;8.86;100.00;96723.41;4991139;28;104985;-63
2022/09/20 04:56:21;;;;;;;1.30;1.20;;;;;;;8.95;100.00;96732.63;5029998;27;101750;-63
2022/09/20 04:58:57;;;;;;;1.40;1.30;;;;;;;8.90;100.00;96724.56;5022340;28;103964;-63
2022/09/20 05:02:02;;;;;;;2.00;1.40;;;;;;;8.97;100.00;96731.38;5012272;28;102593;-63
2022/09/20 05:05:20;;;;;;;1.70;1.30;;;;;;;8.98;100.00;96732.16;5015215;28;101959;-63
2022/09/20 05:08:21;;;;;;;1.00;1.00;;;;;;;8.99;100.00;96737.22;5019026;28;102539;-63
2022/09/20 05:11:08;;;;;;;1.43;1.27;;;;;;;9.01;100.00;96726.41;5021220;28;105989;-63
2022/09/20 05:13:45;;;;;;;1.50;1.40;;;;;;;9.03;100.00;96733.09;5031424;28;106107;-63
2022/09/20 05:16:33;;;;;;;1.30;1.20;;;;;;;8.99;100.00;96729.28;5032189;28;103125;-63
2022/09/20 05:19:13;;;;;;;2.10;1.40;;;;;;;8.97;100.00;96730.53;5031294;28;101992;-63
2022/09/20 05:22:26;;;;;;;2.17;1.47;;;;;;;9.02;100.00;96728.00;5032299;28;102885;-62
2022/09/20 05:25:10;;;;;;;1.23;1.20;;;;;;;9.05;100.00;96738.16;4986782;28;103082;-63
2022/09/20 05:27:52;;;;;;;1.60;1.43;;;;;;;9.11;100.00;96734.59;5012484;28;101767;-62
2022/09/20 05:30:30;;;;;;;1.93;1.70;;;;;;;9.09;100.00;96731.34;5012637;28;102348;-62
2022/09/20 05:33:11;;;;;;;1.97;1.87;;;;;;;9.08;100.00;96741.16;5010522;28;105316;-62
2022/09/20 05:39:16;;;;;;;3.13;1.70;;;;;;;9.14;100.00;96742.88;5011596;28;104491;-62
2022/09/20 05:41:51;;;;;;;6.13;2.50;;;;;;;9.21;100.00;96740.91;5024265;28;101936;-62
2022/09/20 05:44:31;;;;;;;8.57;3.90;;;;;;;9.26;100.00;96734.91;5031019;28;105029;-62
2022/09/20 05:47:12;;;;;;;3.07;2.20;;;;;;;9.32;100.00;96740.06;5030352;28;105952;-62
2022/09/20 05:50:09;;;;;;;2.63;1.93;;;;;;;9.42;100.00;96750.09;5015156;28;101857;-62
2022/09/20 05:52:47;;;;;;;11.90;8.63;;;;;;;9.53;100.00;96750.06;4984001;28;1340688;-62
2022/09/20 05:55:36;;;;;;;4.63;3.33;;;;;;;9.61;100.00;96756.88;5031310;28;105308;-62
2022/09/20 05:58:16;;;;;;;3.17;2.87;;;;;;;9.62;100.00;96755.81;5033372;28;101713;-62
2022/09/20 06:00:51;;;;;;;4.57;3.23;;;;;;;9.69;100.00;96752.00;5028393;28;103450;-62
2022/09/20 06:03:31;;;;;;;9.93;4.30;;;;;;;9.76;100.00;96759.84;5011752;28;101725;-62
2022/09/20 06:06:15;;;;;;;4.47;2.80;;;;;;;9.77;100.00;96753.47;5011383;28;104913;-62
2022/09/20 06:09:04;;;;;;;4.70;2.30;;;;;;;9.77;100.00;96754.25;5010682;28;105574;-62
2022/09/20 06:11:55;;;;;;;6.37;2.40;;;;;;;9.84;100.00;96754.97;5011600;28;101853;-62
2022/09/20 06:14:38;;;;;;;8.50;3.37;;;;;;;9.89;100.00;96757.72;5011504;28;105050;-62
2022/09/20 06:17:31;;;;;;;3.57;2.27;;;;;;;9.90;100.00;96756.66;5010813;28;103782;-62
2022/09/20 06:20:13;;;;;;;5.03;2.30;;;;;;;9.92;100.00;96772.38;5012574;28;101995;-62
2022/09/20 06:22:44;;;;;;;5.23;2.60;;;;;;;9.94;100.00;96762.31;5031090;28;106228;-62
2022/09/20 06:25:15;;;;;;;4.63;2.73;;;;;;;9.95;100.00;96766.56;5025977;28;102721;-63
2022/09/20 06:27:47;;;;;;;3.03;2.10;;;;;;;10.01;100.00;96763.78;5011441;28;105177;-63
2022/09/20 06:30:18;;;;;;;4.43;2.60;;;;;;;10.07;100.00;96770.00;5010473;28;105427;-62
2022/09/20 06:33:01;;;;;;;5.57;2.90;;;;;;;10.09;100.00;96775.91;5011260;28;101895;-62
2022/09/20 06:35:38;;;;;;;2.60;2.20;;;;;;;10.08;100.00;96769.00;5025401;28;103539;-63
2022/09/20 06:41:30;;;;;;;3.50;2.70;;;;;;;10.15;100.00;96773.09;5011149;28;101777;-63
2022/09/20 06:44:00;;;;;;;3.73;2.93;;;;;;;10.09;100.00;96770.59;5012506;28;102786;-62
2022/09/20 06:47:00;;;;;;;4.10;2.30;;;;;;;10.15;100.00;96773.09;5010308;28;105491;-63
2022/09/20 06:49:46;;;;;;;3.50;2.30;;;;;;;10.17;100.00;96770.19;5014124;28;102268;-63
2022/09/20 06:52:15;;;;;;;3.20;2.80;;;;;;;10.36;100.00;96771.63;5004743;28;105096;-64
2022/09/20 06:54:44;;;;;;;4.77;2.50;;;;;;;10.45;100.00;96771.00;4990838;28;102198;-61
2022/09/20 06:58:08;;;;;;;5.27;2.30;;;;;;;10.60;100.00;96771.25;4990800;28;105109;-62
2022/09/20 07:00:35;;;;;;;2.40;2.20;;;;;;;10.54;100.00;96766.91;4990064;28;105396;-62
2022/09/20 07:03:02;;;;;;;2.60;2.37;;;;;;;10.45;100.00;96771.00;4990423;28;101965;-63
2022/09/20 07:05:53;;;;;;;4.70;3.30;;;;;;;10.58;100.00;96769.88;4990260;28;104715;-63
2022/09/20 07:08:19;;;;;;;5.53;2.60;;;;;;;10.70;100.00;96766.09;5004416;28;102769;-63
2022/09/20 07:10:46;;;;;;;3.27;2.37;;;;;;;10.72;100.00;96765.84;5013603;28;101825;-64
2022/09/20 07:13:13;;;;;;;2.80;2.03;;;;;;;10.72;100.00;96757.84;5009607;28;105117;-64
2022/09/20 07:15:45;;;;;;;4.57;2.67;;;;;;;10.71;100.00;96764.22;5010438;28;101872;-64
2022/09/20 07:18:13;;;;;;;4.87;1.90;;;;;;;10.74;100.00;96764.56;4995493;28;103604;-64
2022/09/20 07:20:43;;;;;;;4.13;2.50;;;;;;;10.70;100.00;96766.09;4989284;28;105480;-64
2022/09/20 07:23:14;;;;;;;4.97;2.50;;;;;;;10.84;100.00;96766.59;4989995;28;101966;-64
2022/09/20 07:25:59;;;;;;;3.90;2.37;;;;;;;10.82;100.00;96773.97;4990046;28;105396;-63
2022/09/20 07:28:27;;;;;;;3.97;2.00;;;;;;;10.70;100.00;96770.59;4989507;28;105347;-63
2022/09/20 07:30:54;;;;;;;4.17;2.47;;;;;;;10.84;100.00;96777.22;4990221;28;102130;-64
2022/09/20 07:33:23;;;;;;;3.10;2.67;;;;;;;10.90;100.00;96773.59;4992955;28;104788;-63
2022/09/20 07:36:09;;;;;;;5.37;3.63;;;;;;;10.81;100.00;96775.03;4991450;28;101842;-63
2022/09/20 07:38:38;;;;;;;4.90;2.60;;;;;;;10.80;100.00;96771.56;4996614;28;102511;-63
2022/09/20 07:41:05;;;;;;;2.63;1.73;;;;;;;10.72;100.00;96774.63;4989661;28;106086;-63
2022/09/20 07:43:33;;;;;;;3.00;1.70;;;;;;;10.74;100.00;96777.06;4992084;28;103018;-64
2022/09/20 07:46:12;;;;;;;4.27;1.50;;;;;;;10.72;100.00;96784.47;5011089;28;102271;-63
2022/09/20 07:48:40;;;;;;;4.43;1.73;;;;;;;10.72;100.00;96784.47;4998552;28;103234;-63
2022/09/20 07:51:09;;;;;;;3.20;1.37;;;;;;;10.64;100.00;96798.16;5002102;28;101831;-63
2022/09/20 07:53:39;;;;;;;3.17;1.57;;;;;;;10.66;100.00;96783.59;5027156;28;102366;-64
2022/09/20 07:56:35;;;;;;;4.77;1.70;;;;;;;10.71;100.00;96790.81;5034146;28;102670;-63
2022/09/20 07:59:02;;;;;;;2.33;1.77;;;;;;;10.78;100.00;96788.81;5031154;28;103851;-63
2022/09/20 08:01:29;;;;;;;3.37;2.00;;;;;;;10.74;100.00;96790.38;5021442;27;102886;-64
2022/09/20 08:03:56;;;;;;;3.60;1.80;;;;;;;10.67;100.00;96789.69;5015247;28;101803;-64
2022/09/20 08:06:25;;;;;;;3.40;1.73;;;;;;;10.64;100.00;96800.81;5028724;28;102892;-72
2022/09/20 08:08:55;;;;;;;3.80;1.63;;;;;;;10.45;100.00;96800.22;5009049;28;105763;-64
2022/09/20 08:11:24;;;;;;;3.53;1.70;;;;;;;10.49;100.00;96797.91;5019734;28;101922;-64
2022/09/20 08:13:53;;;;;;;2.53;1.80;;;;;;;10.45;100.00;96804.72;5011899;28;105320;-64
2022/09/20 08:16:23;;;;;;;5.80;1.70;;;;;;;10.55;100.00;96804.91;5016317;28;105595;-63
2022/09/20 08:18:52;;;;;;;4.23;1.50;;;;;;;10.43;100.00;96797.03;5027077;28;101965;-64
2022/09/20 08:21:31;;;;;;;2.80;1.80;;;;;;;10.61;100.00;96809.28;5020328;27;102860;-64
2022/09/20 08:24:02;;;;;;;4.10;1.80;;;;;;;10.64;100.00;96806.16;5022696;28;101787;-64
2022/09/20 08:26:31;;;;;;;6.03;2.03;;;;;;;10.73;100.00;96807.34;5030910;27;102367;-64
2022/09/20 08:29:00;;;;;;;4.57;2.03;;;;;;;10.74;100.00;96799.13;5011778;28;103901;-64
2022/09/20 08:31:33;;;;;;;3.53;2.07;;;;;;;10.75;100.00;96799.94;5021456;28;102418;-64
2022/09/20 08:34:02;;;;;;;4.27;1.97;;;;;;;10.71;100.00;96804.13;5030826;27;102315;-63
2022/09/20 08:37:05;;;;;;;3.00;1.73;;;;;;;10.77;100.00;96793.34;5030290;28;102886;-64
2022/09/20 08:39:33;;;;;;;2.40;1.63;;;;;;;11.02;100.00;96796.38;5010653;28;102000;-63
2022/09/20 08:42:12;;;;;;;4.07;2.23;;;;;;;11.17;100.00;96809.94;5011834;28;105685;-63
2022/09/20 08:44:49;;;;;;;3.23;2.10;;;;;;;11.39;100.00;96802.00;5016351;28;101747;-63
2022/09/20 08:47:49;;;;;;;4.67;2.00;;;;;;;11.38;100.00;96797.72;5021679;28;106085;-67
2022/09/20 08:50:36;;;;;;;9.57;2.73;;;;;;;11.05;100.00;96798.56;5008567;28;105737;-63
2022/09/20 08:53:04;;;;;;;5.63;1.80;;;;;;;10.95;100.00;96805.59;5008274;28;102070;-63
2022/09/20 08:55:43;;;;;;;3.53;2.23;;;;;;;10.66;100.00;96801.38;5026915;28;101717;-64
2022/09/20 08:58:12;;;;;;;5.27;2.20;;;;;;;10.59;100.00;96806.88;5009929;28;103136;-64
2022/09/20 09:00:40;;;;;;;3.23;2.37;;;;;;;10.34;100.00;96819.72;5008939;28;101950;-64
2022/09/20 09:03:13;;;;;;;7.73;3.00;;;;;;;10.22;100.00;96820.78;5008895;28;103840;-65
2022/09/20 09:05:45;;;;;;;3.53;2.60;;;;;;;10.14;100.00;96826.50;5021313;28;102893;-64
2022/09/20 09:08:15;;;;;;;7.80;3.00;;;;;;;10.02;100.00;96833.66;5024773;27;102999;-64
2022/09/20 09:10:46;;;;;;;3.40;2.63;;;;;;;9.91;100.00;96835.31;5028245;28;107567;-64
2022/09/20 09:13:24;;;;;;;4.67;3.33;;;;;;;9.91;100.00;96831.84;5030320;28;101691;-64
2022/09/20 09:15:57;;;;;;;6.07;3.20;;;;;;;9.81;100.00;96840.41;5030310;28;101830;-64
2022/09/20 09:18:32;;;;;;;3.90;2.80;;;;;;;9.79;100.00;96842.50;5030009;28;102547;-65
2022/09/20 09:21:44;;;;;;;3.47;2.53;;;;;;;9.61;100.00;96847.97;5024338;27;101898;-65
2022/09/20 09:24:16;;;;;;;2.87;2.60;;;;;;;9.46;100.00;96842.31;5028364;28;103896;-64
2022/09/20 09:26:49;;;;;;;2.53;1.83;;;;;;;9.53;100.00;96836.88;5019944;28;105271;-64
2022/09/20 09:29:19;;;;;;;1.47;1.37;;;;;;;9.50;100.00;96824.06;5030174;28;102153;-65
2022/09/20 09:31:47;;;;;;;2.90;1.60;;;;;;;9.61;100.00;96825.91;5029457;28;102052;-65
2022/09/20 09:34:25;;;;;;;2.13;1.63;;;;;;;9.61;100.00;96820.59;5029933;28;101894;-65
2022/09/20 09:36:59;;;;;;;3.17;1.70;;;;;;;9.70;100.00;96824.50;5029988;28;101711;-65
2022/09/20 09:39:28;;;;;;;1.63;1.40;;;;;;;9.86;100.00;96824.56;5029265;28;103267;-65
2022/09/20 09:41:59;;;;;;;2.93;1.57;;;;;;;9.89;100.00;96824.13;5019170;27;103483;-65
2022/09/20 09:44:28;;;;;;;3.00;1.80;;;;;;;9.77;100.00;96823.31;5028083;28;103946;-64
2022/09/20 09:47:26;;;;;;;4.07;1.80;;;;;;;9.83;100.00;96816.28;5014094;28;103032;-63
2022/09/20 09:50:29;;;;;;;1.37;1.27;;;;;;;9.73;100.00;96821.38;5015359;28;101892;-64
2022/09/20 09:53:09;;;;;;;1.70;1.60;;;;;;;9.79;100.00;96825.75;5012232;28;103059;-64
2022/09/20 09:56:07;;;;;;;5.10;3.50;;;;;;;9.88;100.00;96829.66;5013092;28;101715;-64
2022/09/20 09:58:53;;;;;;;2.60;2.10;;;;;;;9.90;100.00;96831.03;5012929;28;103130;-64
2022/09/20 10:01:30;;;;;;;4.70;3.57;;;;;;;9.87;100.00;96828.06;5011171;28;105537;-64
2022/09/20 10:04:05;;;;;;;3.13;2.57;;;;;;;9.94;100.00;96831.38;5011629;28;101860;-64
2022/09/20 10:06:43;;;;;;;3.70;2.33;;;;;;;10.21;100.00;96827.16;5011638;28;105275;-64
2022/09/20 10:09:22;;;;;;;2.50;2.00;;;;;;;10.32;100.00;96823.66;5026789;28;105350;-64
2022/09/20 10:12:03;;;;;;;3.03;2.10;;;;;;;10.23;100.00;96823.22;5012963;28;101714;-64
2022/09/20 10:14:49;;;;;;;2.40;2.20;;;;;;;10.23;100.00;96820.56;5024844;28;103951;-64
2022/09/20 10:17:35;;;;;;;2.73;2.00;;;;;;;10.24;100.00;96818.72;5033247;27;101742;-64
2022/09/20 10:20:41;;;;;;;3.23;1.97;;;;;;;10.42;100.00;96816.66;5013691;28;102258;-64
2022/09/20 10:23:22;;;;;;;2.50;2.30;;;;;;;10.73;100.00;96813.47;5010768;28;105781;-64
2022/09/20 10:25:56;;;;;;;4.77;2.47;;;;;;;10.75;100.00;96810.59;5011153;28;102016;-63
2022/09/20 10:28:49;;;;;;;3.13;2.63;;;;;;;10.73;100.00;96807.34;5011171;28;105554;-64
2022/09/20 10:31:31;;;;;;;5.83;2.70;;;;;;;10.96;100.00;96807.22;5012064;28;103015;-64
2022/09/20 10:34:28;;;;;;;2.40;2.20;;;;;;;11.26;100.00;96789.03;5012436;28;101739;-64
2022/09/20 10:37:21;;;;;;;3.10;2.80;;;;;;;11.67;100.00;96799.22;5012720;28;102229;-64
2022/09/20 10:39:59;;;;;;;2.80;2.60;;;;;;;11.82;100.00;96802.09;5015471;28;103075;-64
2022/09/20 10:45:48;;;;;;;7.13;3.17;;;;;;;12.03;100.00;96798.59;5012049;28;102836;-64
2022/09/20 10:48:21;;;;;;;4.57;2.23;;;;;;;11.81;100.00;96800.47;5010777;28;101938;-64
2022/09/20 10:51:00;;;;;;;2.63;2.43;;;;;;;11.47;100.00;96796.25;5010945;28;105226;-63
2022/09/20 10:53:38;;;;;;;7.27;5.60;;;;;;;11.54;100.00;96804.88;5011083;28;104454;-64
2022/09/20 10:56:28;;;;;;;5.77;4.77;;;;;;;11.63;100.00;96803.44;5012299;28;101744;-63
2022/09/20 10:59:21;;;;;;;4.10;3.70;;;;;;;11.72;100.00;96810.75;5012283;28;102441;-64
2022/09/20 11:02:03;;;;;;;4.67;2.97;;;;;;;11.93;100.00;96807.28;5010275;28;105796;-64
2022/09/20 11:04:47;;;;;;;3.90;3.60;;;;;;;11.84;100.00;96798.09;5026010;28;101983;-64
2022/09/20 11:07:32;;;;;;;2.97;2.53;;;;;;;12.38;100.00;96804.31;5031573;28;102856;-64
2022/09/20 11:10:04;;;;;;;2.20;2.00;;;;;;;12.57;100.00;96810.91;5030503;28;101901;-62
2022/09/20 11:12:38;;;;;;;2.47;2.27;;;;;;;12.34;100.00;96800.53;5030570;28;105510;-63
2022/09/20 11:15:15;;;;;;;2.97;1.93;;;;;;;12.23;100.00;96804.97;5031635;27;102543;-63
2022/09/20 11:18:05;;;;;;;2.43;2.10;;;;;;;12.06;100.00;96809.59;5030447;28;102019;-63
2022/09/20 11:20:47;;;;;;;2.30;2.00;;;;;;;12.44;100.00;96800.66;5032001;28;102887;-63
2022/09/20 11:23:19;;;;;;;5.03;2.33;;;;;;;12.39;100.00;96797.94;5014852;28;102164;-63
2022/09/20 11:26:13;;;;;;;3.20;2.90;;;;;;;12.27;100.00;96802.59;5011867;28;102177;-63
2022/09/20 11:28:45;;;;;;;2.40;2.20;;;;;;;12.22;100.00;96802.56;5013220;28;105382;-63
2022/09/20 11:31:20;;;;;;;4.53;2.63;;;;;;;12.31;100.00;96806.41;5011631;28;102078;-63
2022/09/20 11:33:52;;;;;;;3.20;2.63;;;;;;;12.71;100.00;96806.78;5011617;28;102874;-63
2022/09/20 11:36:38;;;;;;;3.17;2.80;;;;;;;13.07;100.00;96803.38;5009628;28;105926;-63
2022/09/20 11:39:14;;;;;;;3.00;2.57;;;;;;;13.35;100.00;96801.19;5010104;28;101969;-64
2022/09/20 11:41:42;;;;;;;5.60;3.77;;;;;;;13.27;100.00;96795.50;5011587;28;102896;-64
2022/09/20 11:44:13;;;;;;;3.93;2.90;;;;;;;13.04;100.00;96790.53;5009431;28;105676;-64
2022/09/20 11:46:53;;;;;;;3.27;2.90;;;;;;;12.90;100.00;96790.13;5009833;28;101924;-64
2022/09/20 11:49:25;;;;;;;3.50;2.43;;;;;;;13.16;100.00;96786.63;5012832;28;105746;-64
2022/09/20 11:52:27;;;;;;;4.07;2.67;;;;;;;12.89;100.00;96793.06;5014356;28;103258;-64
2022/09/20 11:55:27;;;;;;;4.93;2.73;;;;;;;12.58;100.00;96799.16;5011479;28;102368;-64
2022/09/20 11:58:07;;;;;;;4.03;3.53;;;;;;;12.41;100.00;96801.97;5029562;28;102682;-64
2022/09/20 12:00:36;;;;;;;3.17;2.80;;;;;;;12.51;100.00;96799.41;5029885;28;101896;-64
2022/09/20 12:03:06;;;;;;;3.63;2.77;;;;;;;12.78;100.00;96788.69;5025837;28;105122;-64
2022/09/20 12:05:36;;;;;;;3.87;2.90;;;;;;;13.05;100.00;96781.47;5008651;28;106102;-64
2022/09/20 12:08:08;;;;;;;3.87;2.80;;;;;;;13.12;100.00;96777.53;5024455;28;101763;-64
2022/09/20 12:10:39;;;;;;;2.90;2.70;;;;;;;13.11;100.00;96780.44;5031374;27;102516;-64
2022/09/20 12:13:20;;;;;;;2.90;2.70;;;;;;;12.98;100.00;96780.88;5024500;28;101852;-64
2022/09/20 12:16:00;;;;;;;3.13;2.60;;;;;;;12.93;100.00;96773.59;5017652;28;104441;-64
2022/09/20 12:18:33;;;;;;;3.70;2.47;;;;;;;12.93;100.00;96776.25;5008724;28;105208;-64
2022/09/20 12:21:16;;;;;;;2.83;2.40;;;;;;;12.78;100.00;96762.00;5009489;28;101912;-64
2022/09/20 12:24:11;;;;;;;3.00;2.10;;;;;;;12.79;100.00;96759.09;5009241;28;105745;-63
2022/09/20 12:26:45;;;;;;;3.73;2.00;;;;;;;12.72;100.00;96757.69;5008669;28;103166;-64
2022/09/20 12:29:51;;;;;;;3.10;1.80;;;;;;;12.56;100.00;96746.09;5010923;28;102190;-64
2022/09/20 12:32:49;;;;;;;3.40;1.60;;;;;;;12.39;100.00;96755.25;5010980;28;102432;-64
2022/09/20 12:35:59;;;;;;;5.87;3.23;;;;;;;12.53;100.00;96761.81;5010123;28;103128;-64
2022/09/20 12:38:38;;;;;;;4.60;2.27;;;;;;;12.61;100.00;96761.31;5014421;28;101685;-65
2022/09/20 12:41:16;;;;;;;3.70;2.07;;;;;;;12.61;100.00;96753.31;5016660;28;103422;-64
2022/09/20 12:43:52;;;;;;;3.37;2.07;;;;;;;12.69;100.00;96761.66;5029526;28;102319;-64